createdAt,value
2018-04-08T00:00:17.398Z,12.40
2018-04-08T00:01:17.396Z,12.30
2018-04-08T00:02:17.392Z,11.70
2018-04-08T00:03:17.389Z,12.60
2018-04-08T00:04:17.387Z,12.00
2018-04-08T00:05:17.385Z,13.20
2018-04-08T00:06:17.384Z,12.30
2018-04-08T00:07:17.384Z,12.10
2018-04-08T00:08:17.381Z,12.30
2018-04-08T00:09:17.384Z,12.30
2018-04-08T00:10:17.377Z,13.10
2018-04-08T00:11:17.376Z,13.30
2018-04-08T00:12:17.378Z,13.20
2018-04-08T00:13:17.377Z,13.70
2018-04-08T00:14:17.375Z,13.40
2018-04-08T00:15:17.373Z,12.60
2018-04-08T00:16:17.369Z,12.90
2018-04-08T00:17:17.365Z,13.30
2018-04-08T00:18:17.365Z,12.30
2018-04-08T00:19:17.362Z,13.40
2018-04-08T00:20:17.360Z,12.30
2018-04-08T00:21:17.360Z,12.80
2018-04-08T00:22:17.358Z,13.60
2018-04-08T00:23:17.356Z,13.10
2018-04-08T00:24:17.356Z,12.90
2018-04-08T00:25:17.355Z,12.50
2018-04-08T00:26:17.354Z,11.50
2018-04-08T00:27:17.353Z,13.00
2018-04-08T00:28:17.346Z,11.50
2018-04-08T00:29:17.345Z,12.90
2018-04-08T00:30:17.345Z,13.40
2018-04-08T00:31:17.341Z,13.50
2018-04-08T00:32:17.344Z,12.40
2018-04-08T00:33:17.342Z,12.30
2018-04-08T00:34:17.338Z,12.70
2018-04-08T00:35:17.334Z,13.00
2018-04-08T00:36:17.334Z,12.20
2018-04-08T00:37:17.331Z,12.70
2018-04-08T00:38:17.330Z,14.10
2018-04-08T00:39:17.327Z,13.40
2018-04-08T00:40:17.327Z,13.50
2018-04-08T00:41:17.326Z,12.50
2018-04-08T00:42:17.323Z,13.20
2018-04-08T00:43:17.321Z,12.30
2018-04-08T00:44:17.322Z,12.90
2018-04-08T00:45:17.321Z,12.40
2018-04-08T00:46:17.320Z,13.70
2018-04-08T00:47:17.317Z,12.40
2018-04-08T00:48:17.312Z,12.10
2018-04-08T00:49:17.311Z,12.20
2018-04-08T00:50:17.308Z,12.70
2018-04-08T00:51:17.306Z,13.30
2018-04-08T00:52:17.304Z,13.00
2018-04-08T00:53:17.304Z,13.70
2018-04-08T00:54:17.301Z,15.00
2018-04-08T00:55:17.300Z,13.70
2018-04-08T00:56:17.298Z,13.70
2018-04-08T00:57:17.296Z,12.40
2018-04-08T00:58:17.299Z,13.70
2018-04-08T00:59:17.295Z,13.20
2018-04-08T01:00:17.289Z,13.50
2018-04-08T01:01:17.288Z,12.90
2018-04-08T01:02:17.286Z,14.00
2018-04-08T01:03:17.283Z,13.30
2018-04-08T01:04:17.286Z,12.70
2018-04-08T01:05:17.284Z,14.10
2018-04-08T01:06:17.278Z,13.90
2018-04-08T01:07:17.277Z,12.30
2018-04-08T01:08:17.274Z,13.40
2018-04-08T01:09:17.273Z,13.90
2018-04-08T01:10:17.271Z,12.80
2018-04-08T01:11:17.269Z,12.10
2018-04-08T01:12:17.266Z,12.70
2018-04-08T01:13:17.265Z,12.90
2018-04-08T01:14:17.263Z,12.50
2018-04-08T01:15:17.261Z,11.60
2018-04-08T01:16:17.268Z,11.90
2018-04-08T01:17:17.261Z,12.80
2018-04-08T01:18:17.259Z,13.30
2018-04-08T01:19:17.256Z,12.70
2018-04-08T01:20:17.250Z,12.60
2018-04-08T01:21:17.251Z,13.40
2018-04-08T01:22:17.247Z,12.50
2018-04-08T01:23:17.246Z,14.00
2018-04-08T01:24:17.243Z,13.90
2018-04-08T01:25:17.241Z,13.60
2018-04-08T01:26:17.240Z,14.20
2018-04-08T01:27:17.237Z,14.20
2018-04-08T01:28:17.236Z,14.00
2018-04-08T01:29:17.233Z,13.40
2018-04-08T01:30:17.236Z,13.30
2018-04-08T01:31:17.232Z,14.20
2018-04-08T01:32:17.226Z,14.10
2018-04-08T01:33:17.226Z,13.40
2018-04-08T01:34:17.223Z,12.40
2018-04-08T01:35:17.220Z,13.30
2018-04-08T01:36:17.219Z,12.90
2018-04-08T01:37:17.218Z,13.30
2018-04-08T01:38:17.221Z,13.60
2018-04-08T01:39:17.216Z,13.10
2018-04-08T01:40:17.211Z,13.80
2018-04-08T01:41:17.208Z,14.00
2018-04-08T01:42:17.210Z,11.80
2018-04-08T01:43:17.208Z,13.90
2018-04-08T01:44:17.201Z,13.10
2018-04-08T01:45:17.201Z,14.00
2018-04-08T01:46:17.198Z,14.20
2018-04-08T01:47:17.195Z,13.30
2018-04-08T01:48:17.194Z,14.10
2018-04-08T01:49:17.192Z,13.00
2018-04-08T01:50:17.190Z,14.10
2018-04-08T01:51:17.186Z,13.90
2018-04-08T01:52:17.186Z,12.70
2018-04-08T01:53:17.184Z,13.50
2018-04-08T01:54:17.181Z,13.10
2018-04-08T01:55:17.178Z,13.90
2018-04-08T01:56:17.182Z,14.10
2018-04-08T01:57:17.178Z,13.40
2018-04-08T01:58:17.172Z,14.00
2018-04-08T01:59:17.171Z,13.60
2018-04-08T02:00:17.172Z,13.30
2018-04-08T02:01:17.170Z,13.80
2018-04-08T02:02:17.164Z,12.60
2018-04-08T02:03:17.162Z,13.50
2018-04-08T02:04:17.159Z,13.10
2018-04-08T02:05:17.158Z,13.90
2018-04-08T02:06:17.156Z,14.10
2018-04-08T02:07:17.154Z,13.10
2018-04-08T02:08:17.150Z,15.00
2018-04-08T02:09:17.149Z,14.90
2018-04-08T02:10:17.151Z,14.70
2018-04-08T02:11:17.148Z,13.30
2018-04-08T02:12:17.143Z,13.80
2018-04-08T02:13:17.141Z,12.90
2018-04-08T02:14:17.143Z,12.80
2018-04-08T02:15:17.139Z,12.70
2018-04-08T02:16:17.133Z,13.70
2018-04-08T02:17:17.131Z,13.40
2018-04-08T02:18:17.130Z,13.70
2018-04-08T02:19:17.127Z,13.50
2018-04-08T02:20:17.126Z,14.30
2018-04-08T02:21:17.124Z,13.10
2018-04-08T02:22:17.125Z,14.40
2018-04-08T02:23:17.119Z,13.80
2018-04-08T02:24:17.116Z,14.20
2018-04-08T02:25:17.115Z,12.80
2018-04-08T02:26:17.113Z,14.20
2018-04-08T02:27:17.110Z,14.70
2018-04-08T02:28:17.112Z,13.60
2018-04-08T02:29:17.110Z,13.90
2018-04-08T02:30:17.106Z,14.50
2018-04-08T02:31:17.111Z,13.50
2018-04-08T02:32:17.104Z,13.90
2018-04-08T02:33:17.105Z,14.70
2018-04-08T02:34:17.098Z,14.60
2018-04-08T02:35:17.093Z,13.70
2018-04-08T02:36:17.092Z,14.50
2018-04-08T02:37:17.090Z,13.80
2018-04-08T02:38:17.089Z,13.70
2018-04-08T02:39:17.086Z,13.50
2018-04-08T02:40:17.088Z,14.40
2018-04-08T02:41:17.087Z,14.20
2018-04-08T02:42:17.080Z,12.60
2018-04-08T02:43:17.077Z,13.30
2018-04-08T02:44:17.078Z,13.70
2018-04-08T02:45:17.074Z,13.60
2018-04-08T02:46:17.076Z,12.80
2018-04-08T02:47:17.069Z,14.40
2018-04-08T02:48:17.068Z,13.90
2018-04-08T02:49:17.066Z,12.50
2018-04-08T02:50:17.063Z,13.80
2018-04-08T02:51:17.061Z,14.30
2018-04-08T02:52:17.064Z,12.80
2018-04-08T02:53:17.062Z,14.70
2018-04-08T02:54:17.059Z,15.30
2018-04-08T02:55:17.058Z,14.10
2018-04-08T02:56:17.050Z,13.50
2018-04-08T02:57:17.049Z,13.80
2018-04-08T02:58:17.047Z,13.20
2018-04-08T02:59:17.045Z,13.00
2018-04-08T03:00:17.043Z,13.80
2018-04-08T03:01:17.041Z,12.70
2018-04-08T03:02:17.040Z,13.90
2018-04-08T03:03:17.040Z,13.90
2018-04-08T03:04:17.041Z,14.00
2018-04-08T03:05:17.033Z,14.90
2018-04-08T03:06:17.036Z,13.90
2018-04-08T03:07:17.032Z,13.90
2018-04-08T03:08:17.028Z,13.60
2018-04-08T03:09:17.025Z,15.60
2018-04-08T03:10:17.024Z,15.70
2018-04-08T03:11:17.020Z,13.90
2018-04-08T03:12:17.021Z,13.50
2018-04-08T03:13:17.019Z,14.50
2018-04-08T03:14:17.015Z,15.10
2018-04-08T03:15:17.011Z,13.40
2018-04-08T03:16:17.010Z,12.90
2018-04-08T03:17:17.008Z,14.20
2018-04-08T03:18:17.007Z,14.40
2018-04-08T03:19:17.004Z,15.90
2018-04-08T03:20:17.002Z,15.70
2018-04-08T03:21:16.999Z,15.50
2018-04-08T03:22:16.998Z,14.40
2018-04-08T03:23:16.994Z,14.70
2018-04-08T03:24:16.997Z,14.80
2018-04-08T03:25:16.995Z,15.30
2018-04-08T03:26:16.996Z,15.20
2018-04-08T03:27:16.990Z,15.20
2018-04-08T03:28:16.985Z,15.70
2018-04-08T03:29:16.983Z,14.10
2018-04-08T03:30:16.987Z,15.10
2018-04-08T03:31:16.980Z,14.10
2018-04-08T03:32:16.979Z,14.10
2018-04-08T03:33:16.974Z,14.60
2018-04-08T03:34:16.978Z,13.40
2018-04-08T03:35:16.970Z,14.40
2018-04-08T03:36:16.969Z,14.40
2018-04-08T03:37:16.966Z,16.10
2018-04-08T03:38:16.973Z,15.70
2018-04-08T03:39:16.966Z,14.80
2018-04-08T03:40:16.960Z,15.10
2018-04-08T03:41:16.958Z,15.40
2018-04-08T03:42:16.958Z,16.20
2018-04-08T03:43:16.954Z,15.20
2018-04-08T03:44:16.952Z,15.00
2018-04-08T03:45:16.951Z,14.60
2018-04-08T03:46:16.952Z,15.90
2018-04-08T03:47:16.949Z,13.40
2018-04-08T03:48:16.950Z,15.60
2018-04-08T03:49:16.941Z,14.00
2018-04-08T03:50:16.944Z,15.70
2018-04-08T03:51:16.942Z,14.70
2018-04-08T03:52:16.935Z,15.00
2018-04-08T03:53:16.934Z,14.20
2018-04-08T03:54:16.934Z,14.70
2018-04-08T03:55:16.930Z,15.00
2018-04-08T03:56:16.928Z,13.60
2018-04-08T03:57:16.926Z,14.40
2018-04-08T03:58:16.925Z,14.70
2018-04-08T03:59:16.923Z,14.80
2018-04-08T04:00:16.920Z,14.30
2018-04-08T04:01:16.926Z,14.60
2018-04-08T04:02:16.917Z,15.70
2018-04-08T04:03:16.915Z,15.00
2018-04-08T04:04:16.920Z,14.80
2018-04-08T04:05:16.915Z,14.00
2018-04-08T04:06:16.909Z,14.10
2018-04-08T04:07:16.906Z,14.50
2018-04-08T04:08:16.909Z,14.00
2018-04-08T04:09:16.908Z,14.50
2018-04-08T04:10:16.903Z,14.70
2018-04-08T04:11:16.900Z,15.70
2018-04-08T04:12:16.898Z,13.40
2018-04-08T04:13:16.896Z,15.00
2018-04-08T04:14:16.897Z,15.40
2018-04-08T04:15:16.892Z,15.00
2018-04-08T04:16:16.891Z,15.10
2018-04-08T04:17:16.888Z,14.20
2018-04-08T04:18:16.890Z,14.00
2018-04-08T04:19:16.888Z,15.40
2018-04-08T04:20:16.882Z,14.10
2018-04-08T04:21:16.880Z,16.00
2018-04-08T04:22:16.884Z,15.80
2018-04-08T04:23:16.880Z,16.10
2018-04-08T04:24:16.876Z,15.20
2018-04-08T04:25:16.873Z,16.30
2018-04-08T04:26:16.872Z,16.30
2018-04-08T04:27:16.870Z,15.60
2018-04-08T04:28:16.867Z,15.90
2018-04-08T04:29:16.864Z,15.90
2018-04-08T04:30:16.864Z,16.00
2018-04-08T04:31:16.865Z,16.30
2018-04-08T04:32:16.860Z,16.60
2018-04-08T04:33:16.858Z,15.80
2018-04-08T04:34:16.855Z,16.00
2018-04-08T04:35:16.880Z,16.10
2018-04-08T04:36:16.855Z,16.00
2018-04-08T04:37:16.853Z,15.90
2018-04-08T04:38:16.848Z,15.00
2018-04-08T04:39:16.844Z,16.90
2018-04-08T04:40:16.847Z,15.10
2018-04-08T04:41:16.844Z,16.20
2018-04-08T04:42:16.840Z,15.50
2018-04-08T04:43:16.836Z,15.70
2018-04-08T04:44:16.841Z,16.70
2018-04-08T04:45:16.832Z,15.50
2018-04-08T04:46:16.832Z,14.10
2018-04-08T04:47:16.828Z,15.10
2018-04-08T04:48:16.835Z,15.70
2018-04-08T04:49:16.828Z,16.90
2018-04-08T04:50:16.824Z,16.20
2018-04-08T04:51:16.840Z,14.30
2018-04-08T04:52:16.817Z,15.40
2018-04-08T04:53:16.817Z,15.50
2018-04-08T04:54:16.816Z,16.30
2018-04-08T04:55:16.811Z,15.40
2018-04-08T04:56:16.809Z,14.30
2018-04-08T04:57:16.807Z,16.10
2018-04-08T04:58:16.806Z,15.50
2018-04-08T04:59:16.803Z,16.50
2018-04-08T05:00:16.807Z,15.70
2018-04-08T05:01:16.803Z,15.30
2018-04-08T05:02:16.801Z,15.30
2018-04-08T05:03:16.799Z,15.00
2018-04-08T05:04:16.792Z,14.80
2018-04-08T05:05:16.790Z,15.90
2018-04-08T05:06:16.789Z,16.70
2018-04-08T05:07:16.786Z,15.30
2018-04-08T05:08:16.784Z,14.30
2018-04-08T05:09:16.782Z,15.30
2018-04-08T05:10:16.781Z,14.90
2018-04-08T05:11:16.777Z,16.00
2018-04-08T05:12:16.775Z,14.80
2018-04-08T05:13:16.773Z,15.00
2018-04-08T05:14:16.775Z,14.50
2018-04-08T05:15:16.772Z,14.80
2018-04-08T05:16:16.769Z,16.20
2018-04-08T05:17:16.764Z,15.70
2018-04-08T05:18:16.762Z,14.60
2018-04-08T05:19:16.760Z,14.50
2018-04-08T05:20:16.762Z,16.10
2018-04-08T05:21:16.760Z,16.00
2018-04-08T05:22:16.755Z,17.00
2018-04-08T05:23:16.752Z,16.30
2018-04-08T05:24:16.749Z,15.80
2018-04-08T05:25:16.748Z,15.70
2018-04-08T05:26:16.746Z,15.00
2018-04-08T05:27:16.744Z,15.70
2018-04-08T05:28:16.742Z,15.30
2018-04-08T05:29:16.739Z,15.70
2018-04-08T05:30:16.738Z,14.80
2018-04-08T05:31:16.735Z,15.70
2018-04-08T05:32:16.738Z,15.00
2018-04-08T05:33:16.738Z,15.00
2018-04-08T05:34:16.736Z,15.00
2018-04-08T05:35:16.731Z,14.40
2018-04-08T05:36:16.724Z,15.70
2018-04-08T05:37:16.729Z,15.00
2018-04-08T05:38:16.721Z,15.70
2018-04-08T05:39:16.718Z,15.50
2018-04-08T05:40:16.720Z,15.60
2018-04-08T05:41:16.716Z,15.40
2018-04-08T05:42:16.717Z,16.10
2018-04-08T05:43:16.713Z,15.50
2018-04-08T05:44:16.709Z,15.00
2018-04-08T05:45:16.708Z,15.60
2018-04-08T05:46:16.710Z,14.50
2018-04-08T05:47:16.708Z,16.20
2018-04-08T05:48:16.702Z,15.20
2018-04-08T05:49:16.699Z,14.40
2018-04-08T05:50:16.699Z,14.80
2018-04-08T05:51:16.696Z,16.10
2018-04-08T05:52:16.693Z,13.90
2018-04-08T05:53:16.693Z,16.20
2018-04-08T05:54:16.694Z,16.10
2018-04-08T05:55:16.691Z,13.40
2018-04-08T05:56:16.686Z,13.70
2018-04-08T05:57:16.684Z,14.40
2018-04-08T05:58:16.687Z,14.60
2018-04-08T05:59:16.684Z,15.10
2018-04-08T06:00:16.679Z,15.40
2018-04-08T06:01:16.678Z,15.50
2018-04-08T06:02:16.682Z,15.80
2018-04-08T06:03:16.675Z,15.40
2018-04-08T06:04:16.672Z,15.40
2018-04-08T06:05:16.671Z,15.90
2018-04-08T06:06:16.669Z,15.60
2018-04-08T06:07:16.671Z,15.30
2018-04-08T06:08:16.666Z,15.70
2018-04-08T06:09:16.666Z,15.80
2018-04-08T06:10:16.664Z,15.10
2018-04-08T06:11:16.662Z,14.40
2018-04-08T06:12:16.663Z,15.90
2018-04-08T06:13:16.662Z,15.30
2018-04-08T06:14:16.661Z,16.30
2018-04-08T06:15:16.657Z,16.10
2018-04-08T06:16:16.658Z,16.10
2018-04-08T06:17:16.656Z,15.10
2018-04-08T06:18:16.653Z,14.80
2018-04-08T06:19:16.650Z,15.50
2018-04-08T06:20:16.650Z,15.30
2018-04-08T06:21:16.652Z,16.30
2018-04-08T06:22:16.647Z,15.00
2018-04-08T06:23:16.644Z,15.10
2018-04-08T06:24:16.643Z,15.50
2018-04-08T06:25:16.645Z,16.30
2018-04-08T06:26:16.645Z,16.20
2018-04-08T06:27:16.643Z,14.10
2018-04-08T06:28:16.639Z,16.20
2018-04-08T06:29:16.637Z,15.40
2018-04-08T06:30:16.695Z,13.70
2018-04-08T06:31:16.642Z,15.30
2018-04-08T06:32:16.634Z,15.40
2018-04-08T06:33:16.634Z,14.90
2018-04-08T06:34:16.634Z,17.00
2018-04-08T06:35:16.631Z,15.30
2018-04-08T06:36:16.630Z,15.70
2018-04-08T06:37:16.629Z,16.70
2018-04-08T06:38:16.629Z,16.20
2018-04-08T06:39:16.628Z,15.60
2018-04-08T06:40:16.627Z,15.70
2018-04-08T06:41:16.629Z,17.20
2018-04-08T06:42:16.626Z,17.10
2018-04-08T06:43:16.625Z,16.30
2018-04-08T06:44:16.629Z,15.20
2018-04-08T06:45:16.628Z,15.30
2018-04-08T06:46:16.622Z,14.50
2018-04-08T06:47:16.620Z,16.50
2018-04-08T06:48:16.625Z,16.80
2018-04-08T06:49:16.624Z,15.90
2018-04-08T06:50:16.620Z,16.30
2018-04-08T06:51:16.618Z,17.00
2018-04-08T06:52:16.619Z,16.50
2018-04-08T06:53:16.618Z,17.20
2018-04-08T06:54:16.616Z,15.20
2018-04-08T06:55:16.617Z,17.00
2018-04-08T06:56:16.619Z,15.70
2018-04-08T06:57:16.618Z,16.10
2018-04-08T06:58:16.618Z,17.80
2018-04-08T06:59:16.612Z,17.80
2018-04-08T07:00:16.614Z,17.60
2018-04-08T07:01:16.614Z,16.60
2018-04-08T07:02:16.610Z,16.30
2018-04-08T07:03:16.610Z,14.60
2018-04-08T07:04:16.614Z,15.80
2018-04-08T07:05:16.620Z,16.70
2018-04-08T07:06:16.607Z,16.90
2018-04-08T07:07:16.606Z,14.90
2018-04-08T07:08:16.609Z,15.40
2018-04-08T07:09:16.610Z,16.30
2018-04-08T07:10:16.611Z,16.90
2018-04-08T07:11:16.607Z,15.80
2018-04-08T07:12:16.603Z,15.10
2018-04-08T07:13:16.602Z,14.70
2018-04-08T07:14:16.607Z,14.20
2018-04-08T07:15:16.602Z,16.10
2018-04-08T07:16:16.600Z,14.90
2018-04-08T07:17:16.603Z,15.10
2018-04-08T07:18:16.616Z,16.80
2018-04-08T07:19:16.598Z,14.50
2018-04-08T07:20:16.620Z,16.30
2018-04-08T07:21:16.597Z,17.00
2018-04-08T07:22:16.602Z,16.40
2018-04-08T07:23:16.599Z,16.20
2018-04-08T07:24:16.596Z,17.00
2018-04-08T07:25:16.594Z,14.60
2018-04-08T07:26:16.595Z,16.10
2018-04-08T07:27:16.593Z,15.30
2018-04-08T07:28:16.596Z,16.40
2018-04-08T07:29:16.598Z,15.70
2018-04-08T07:30:16.594Z,14.70
2018-04-08T07:31:16.592Z,14.30
2018-04-08T07:32:16.590Z,15.40
2018-04-08T07:33:16.591Z,15.40
2018-04-08T07:34:16.590Z,15.80
2018-04-08T07:35:16.593Z,15.80
2018-04-08T07:36:16.588Z,16.50
2018-04-08T07:37:16.589Z,16.60
2018-04-08T07:38:16.587Z,16.30
2018-04-08T07:39:16.588Z,16.60
2018-04-08T07:40:16.591Z,16.60
2018-04-08T07:41:16.592Z,16.60
2018-04-08T07:42:16.591Z,16.70
2018-04-08T07:43:16.590Z,16.50
2018-04-08T07:44:16.586Z,17.20
2018-04-08T07:45:16.587Z,16.50
2018-04-08T07:46:16.587Z,17.10
2018-04-08T07:47:16.585Z,16.30
2018-04-08T07:48:16.585Z,16.00
2018-04-08T07:49:16.587Z,16.60
2018-04-08T07:50:16.587Z,14.60
2018-04-08T07:51:16.585Z,17.10
2018-04-08T07:52:16.586Z,17.00
2018-04-08T07:53:16.587Z,17.10
2018-04-08T07:54:16.590Z,17.00
2018-04-08T07:55:16.590Z,16.10
2018-04-08T07:56:16.587Z,15.50
2018-04-08T07:57:16.587Z,17.00
2018-04-08T07:58:16.588Z,17.00
2018-04-08T07:59:16.587Z,16.40
2018-04-08T08:00:16.588Z,16.50
2018-04-08T08:01:16.589Z,14.30
2018-04-08T08:02:16.593Z,16.50
2018-04-08T08:03:16.593Z,16.00
2018-04-08T08:04:16.590Z,15.30
2018-04-08T08:05:16.591Z,15.80
2018-04-08T08:06:16.597Z,16.60
2018-04-08T08:07:16.596Z,16.30
2018-04-08T08:08:16.593Z,16.10
2018-04-08T08:09:16.645Z,17.00
2018-04-08T08:10:16.595Z,17.10
2018-04-08T08:11:16.596Z,16.50
2018-04-08T08:12:16.603Z,16.40
2018-04-08T08:13:16.599Z,16.00
2018-04-08T08:14:16.602Z,16.60
2018-04-08T08:15:16.604Z,16.10
2018-04-08T08:16:16.603Z,16.00
2018-04-08T08:17:16.605Z,16.10
2018-04-08T08:18:16.618Z,16.20
2018-04-08T08:19:16.606Z,15.90
2018-04-08T08:20:16.613Z,16.20
2018-04-08T08:21:16.615Z,15.70
2018-04-08T08:22:16.613Z,16.60
2018-04-08T08:23:16.616Z,15.70
2018-04-08T08:24:16.626Z,17.00
2018-04-08T08:25:16.627Z,16.30
2018-04-08T08:26:16.622Z,16.50
2018-04-08T08:27:16.624Z,16.40
2018-04-08T08:28:16.626Z,16.00
2018-04-08T08:29:16.629Z,16.00
2018-04-08T08:30:16.638Z,16.20
2018-04-08T08:31:16.635Z,16.00
2018-04-08T08:32:16.637Z,16.40
2018-04-08T08:33:16.639Z,16.30
2018-04-08T08:34:16.646Z,16.90
2018-04-08T08:35:16.647Z,16.50
2018-04-08T08:36:16.645Z,15.90
2018-04-08T08:37:16.655Z,16.10
2018-04-08T08:38:16.666Z,16.70
2018-04-08T08:39:16.657Z,16.20
2018-04-08T08:40:16.656Z,16.50
2018-04-08T08:41:16.659Z,16.10
2018-04-08T08:42:16.660Z,17.00
2018-04-08T08:43:16.663Z,16.70
2018-04-08T08:44:16.667Z,16.20
2018-04-08T08:45:16.667Z,16.60
2018-04-08T08:46:16.669Z,16.50
2018-04-08T08:47:16.671Z,16.60
2018-04-08T08:48:16.675Z,16.10
2018-04-08T08:49:16.677Z,16.70
2018-04-08T08:50:16.679Z,15.90
2018-04-08T08:51:16.679Z,16.40
2018-04-08T08:52:16.686Z,16.00
2018-04-08T08:53:16.688Z,16.10
2018-04-08T08:54:16.687Z,16.60
2018-04-08T08:55:16.689Z,16.70
2018-04-08T08:56:16.702Z,16.70
2018-04-08T08:57:16.698Z,17.10
2018-04-08T08:58:16.697Z,16.50
2018-04-08T08:59:16.701Z,16.80
2018-04-08T09:00:16.742Z,16.50
2018-04-08T09:01:16.706Z,17.30
2018-04-08T09:02:16.712Z,16.70
2018-04-08T09:03:16.710Z,17.10
2018-04-08T09:04:16.714Z,17.50
2018-04-08T09:05:16.716Z,17.00
2018-04-08T09:06:16.723Z,17.10
2018-04-08T09:07:16.726Z,16.60
2018-04-08T09:08:16.725Z,16.70
2018-04-08T09:09:16.732Z,17.00
2018-04-08T09:10:16.746Z,17.00
2018-04-08T09:11:16.739Z,17.90
2018-04-08T09:12:16.740Z,17.50
2018-04-08T09:13:16.744Z,16.80
2018-04-08T09:14:16.756Z,17.10
2018-04-08T09:15:16.753Z,17.10
2018-04-08T09:16:16.756Z,16.40
2018-04-08T09:17:16.760Z,17.30
2018-04-08T09:18:16.767Z,16.40
2018-04-08T09:19:16.770Z,15.50
2018-04-08T09:20:16.774Z,16.80
2018-04-08T09:21:16.780Z,16.50
2018-04-08T09:22:16.784Z,16.40
2018-04-08T09:23:16.792Z,15.50
2018-04-08T09:24:16.799Z,15.10
2018-04-08T09:25:16.805Z,14.50
2018-04-08T09:26:16.807Z,13.60
2018-04-08T09:27:16.813Z,13.40
2018-04-08T09:28:16.827Z,13.10
2018-04-08T09:29:16.832Z,13.30
2018-04-08T09:30:16.838Z,12.40
2018-04-08T09:31:16.845Z,11.90
2018-04-08T09:32:16.858Z,12.70
2018-04-08T09:33:16.864Z,12.50
2018-04-08T09:34:16.873Z,11.90
2018-04-08T09:35:16.883Z,11.50
2018-04-08T09:36:16.910Z,12.10
2018-04-08T09:37:16.904Z,12.50
2018-04-08T09:38:16.920Z,12.70
2018-04-08T09:39:16.930Z,14.00
2018-04-08T09:40:16.948Z,14.50
2018-04-08T09:41:16.950Z,14.70
2018-04-08T09:42:16.962Z,15.20
2018-04-08T09:43:16.976Z,16.20
2018-04-08T09:44:16.978Z,16.90
2018-04-08T09:45:16.992Z,16.90
2018-04-08T09:46:17.000Z,17.10
2018-04-08T09:47:17.010Z,17.70
2018-04-08T09:48:17.018Z,17.50
2018-04-08T09:49:17.027Z,17.20
2018-04-08T09:50:17.038Z,17.70
2018-04-08T09:51:17.044Z,17.70
2018-04-08T09:52:17.053Z,16.80
2018-04-08T09:53:17.062Z,18.10
2018-04-08T09:54:17.070Z,19.00
2018-04-08T09:55:17.077Z,18.10
2018-04-08T09:56:17.091Z,18.10
2018-04-08T09:57:17.098Z,18.20
2018-04-08T09:58:17.102Z,18.40
2018-04-08T09:59:17.145Z,18.80
2018-04-08T10:00:17.121Z,18.70
2018-04-08T10:01:17.129Z,18.70
2018-04-08T10:02:17.134Z,18.10
2018-04-08T10:03:17.138Z,18.60
2018-04-08T10:04:17.146Z,18.50
2018-04-08T10:05:17.153Z,18.50
2018-04-08T10:06:17.160Z,17.70
2018-04-08T10:07:17.166Z,18.50
2018-04-08T10:08:17.175Z,18.50
2018-04-08T10:09:17.183Z,18.90
2018-04-08T10:10:17.185Z,19.10
2018-04-08T10:11:17.191Z,19.10
2018-04-08T10:12:17.197Z,19.40
2018-04-08T10:13:17.202Z,19.20
2018-04-08T10:14:17.209Z,19.90
2018-04-08T10:15:17.215Z,19.60
2018-04-08T10:16:17.220Z,19.80
2018-04-08T10:17:17.226Z,18.60
2018-04-08T10:18:17.235Z,19.00
2018-04-08T10:19:17.237Z,18.20
2018-04-08T10:20:17.247Z,18.50
2018-04-08T10:21:17.253Z,18.70
2018-04-08T10:22:17.258Z,18.00
2018-04-08T10:23:17.290Z,18.00
2018-04-08T10:24:17.265Z,18.20
2018-04-08T10:25:17.271Z,18.60
2018-04-08T10:26:17.278Z,17.60
2018-04-08T10:27:17.282Z,18.80
2018-04-08T10:28:17.288Z,19.80
2018-04-08T10:29:17.352Z,19.00
2018-04-08T10:30:17.328Z,19.50
2018-04-08T10:31:17.305Z,19.10
2018-04-08T10:32:17.312Z,19.90
2018-04-08T10:33:17.317Z,20.00
2018-04-08T10:34:17.326Z,19.00
2018-04-08T10:35:17.335Z,19.00
2018-04-08T10:36:17.332Z,19.40
2018-04-08T10:37:17.340Z,18.60
2018-04-08T10:38:17.345Z,18.90
2018-04-08T10:39:17.350Z,18.30
2018-04-08T10:40:17.359Z,18.10
2018-04-08T10:41:17.365Z,19.00
2018-04-08T10:42:17.369Z,19.70
2018-04-08T10:43:17.372Z,19.10
2018-04-08T10:44:17.379Z,18.80
2018-04-08T10:45:17.385Z,20.00
2018-04-08T10:46:17.396Z,19.40
2018-04-08T10:47:17.399Z,19.30
2018-04-08T10:48:17.404Z,19.00
2018-04-08T10:49:17.411Z,19.10
2018-04-08T10:50:17.417Z,18.80
2018-04-08T10:51:17.424Z,18.30
2018-04-08T10:52:17.435Z,18.70
2018-04-08T10:53:17.444Z,19.10
2018-04-08T10:54:17.451Z,18.00
2018-04-08T10:55:17.457Z,18.80
2018-04-08T10:56:17.461Z,18.80
2018-04-08T10:57:17.468Z,19.40
2018-04-08T10:58:17.481Z,18.60
2018-04-08T10:59:17.484Z,19.20
2018-04-08T11:00:17.491Z,19.40
2018-04-08T11:01:17.499Z,19.90
2018-04-08T11:02:17.505Z,21.20
2018-04-08T11:03:17.518Z,20.60
2018-04-08T11:04:17.520Z,21.10
2018-04-08T11:05:17.527Z,21.10
2018-04-08T11:06:17.541Z,20.80
2018-04-08T11:07:17.544Z,20.00
2018-04-08T11:08:17.554Z,20.00
2018-04-08T11:09:17.555Z,20.30
2018-04-08T11:10:17.565Z,19.90
2018-04-08T11:11:17.569Z,20.70
2018-04-08T11:12:17.575Z,20.50
2018-04-08T11:13:17.583Z,20.60
2018-04-08T11:14:17.594Z,19.30
2018-04-08T11:15:17.600Z,20.20
2018-04-08T11:16:17.603Z,20.10
2018-04-08T11:17:17.611Z,20.00
2018-04-08T11:18:17.622Z,19.60
2018-04-08T11:19:17.628Z,19.60
2018-04-08T11:20:17.634Z,20.90
2018-04-08T11:21:17.641Z,19.40
2018-04-08T11:22:17.649Z,19.60
2018-04-08T11:23:17.657Z,19.30
2018-04-08T11:24:17.664Z,19.30
2018-04-08T11:25:17.674Z,20.50
2018-04-08T11:26:17.682Z,19.70
2018-04-08T11:27:17.690Z,20.00
2018-04-08T11:28:17.699Z,20.00
2018-04-08T11:29:17.707Z,20.30
2018-04-08T11:30:17.716Z,21.10
2018-04-08T11:31:17.724Z,20.70
2018-04-08T11:32:17.738Z,20.60
2018-04-08T11:33:17.746Z,20.10
2018-04-08T11:34:17.751Z,20.10
2018-04-08T11:35:17.760Z,19.80
2018-04-08T11:36:17.772Z,19.00
2018-04-08T11:37:17.782Z,18.70
2018-04-08T11:38:17.785Z,19.40
2018-04-08T11:39:17.792Z,19.70
2018-04-08T11:40:17.801Z,19.40
2018-04-08T11:41:17.810Z,18.90
2018-04-08T11:42:17.818Z,17.30
2018-04-08T11:43:17.826Z,17.10
2018-04-08T11:44:17.834Z,17.80
2018-04-08T11:45:17.842Z,17.00
2018-04-08T11:46:17.854Z,18.10
2018-04-08T11:47:17.865Z,17.00
2018-04-08T11:48:17.867Z,16.50
2018-04-08T11:49:17.875Z,17.50
2018-04-08T11:50:17.886Z,17.50
2018-04-08T11:51:17.928Z,17.40
2018-04-08T11:52:17.897Z,17.60
2018-04-08T11:53:17.905Z,17.40
2018-04-08T11:54:17.914Z,17.70
2018-04-08T11:55:17.924Z,18.40
2018-04-08T11:56:17.930Z,17.90
2018-04-08T11:57:17.936Z,18.60
2018-04-08T11:58:17.945Z,17.80
2018-04-08T11:59:17.952Z,18.20
2018-04-08T12:00:17.959Z,17.90
2018-04-08T12:01:17.966Z,17.30
2018-04-08T12:02:17.974Z,18.50
2018-04-08T12:03:17.980Z,18.50
2018-04-08T12:04:17.992Z,18.70
2018-04-08T12:05:18.001Z,18.80
2018-04-08T12:06:18.004Z,19.70
2018-04-08T12:07:18.010Z,19.50
2018-04-08T12:08:18.022Z,18.60
2018-04-08T12:09:18.030Z,19.20
2018-04-08T12:10:18.033Z,19.40
2018-04-08T12:11:18.040Z,18.50
2018-04-08T12:12:18.047Z,19.20
2018-04-08T12:13:18.054Z,20.50
2018-04-08T12:14:18.060Z,20.50
2018-04-08T12:15:18.072Z,20.10
2018-04-08T12:16:18.080Z,19.90
2018-04-08T12:17:18.086Z,19.30
2018-04-08T12:18:18.090Z,19.50
2018-04-08T12:19:18.094Z,19.60
2018-04-08T12:20:18.102Z,20.40
2018-04-08T12:21:18.113Z,19.10
2018-04-08T12:22:18.116Z,19.50
2018-04-08T12:23:18.122Z,20.00
2018-04-08T12:24:18.129Z,19.30
2018-04-08T12:25:18.137Z,21.20
2018-04-08T12:26:18.143Z,20.60
2018-04-08T12:27:18.149Z,21.20
2018-04-08T12:28:18.161Z,21.50
2018-04-08T12:29:18.169Z,21.00
2018-04-08T12:30:18.175Z,21.60
2018-04-08T12:31:18.201Z,21.90
2018-04-08T12:32:18.184Z,21.40
2018-04-08T12:33:18.190Z,21.90
2018-04-08T12:34:18.196Z,21.40
2018-04-08T12:35:18.202Z,21.50
2018-04-08T12:36:18.210Z,21.30
2018-04-08T12:37:18.217Z,21.10
2018-04-08T12:38:18.223Z,21.70
2018-04-08T12:39:18.228Z,22.10
2018-04-08T12:40:18.235Z,22.40
2018-04-08T12:41:18.246Z,22.20
2018-04-08T12:42:18.251Z,21.90
2018-04-08T12:43:18.256Z,21.80
2018-04-08T12:44:18.259Z,21.70
2018-04-08T12:45:18.265Z,22.20
2018-04-08T12:46:18.272Z,21.80
2018-04-08T12:47:18.278Z,22.00
2018-04-08T12:48:18.287Z,22.10
2018-04-08T12:49:18.293Z,22.20
2018-04-08T12:50:18.296Z,21.10
2018-04-08T12:51:18.306Z,22.00
2018-04-08T12:52:18.306Z,21.90